Time;durP1;ratioP1;P1;durP2;ratioP2;P2;SDS_P1;SDS_P2;PMS_P1;PMS_P2;Temp;Humidity;BMP_temperature;BMP_pressure;BME280_temperature;BME280_humidity;BME280_pressure;Samples;Min_cycle;Max_cycle;Signal;HPM_P1;HPM_P2
2023/02/02 00:00:19;;;;;;;25.20;13.57;;;;;;;4.28;100.00;99369.56;5072351;28;20266;-92
2023/02/02 00:02:45;;;;;;;21.75;13.48;;;;;;;4.16;100.00;99364.19;5070080;28;20479;-92
2023/02/02 00:05:11;;;;;;;24.77;13.85;;;;;;;4.16;100.00;99377.34;5073416;28;20127;-94
2023/02/02 00:07:37;;;;;;;23.75;14.65;;;;;;;3.96;100.00;99345.59;5073112;28;20036;-92
2023/02/02 00:10:03;;;;;;;26.67;15.75;;;;;;;3.93;100.00;99357.88;5073097;28;20064;-93
2023/02/02 00:12:30;;;;;;;25.15;15.55;;;;;;;3.78;100.00;99341.06;5072758;28;20040;-92
2023/02/02 00:14:56;;;;;;;31.77;16.52;;;;;;;3.94;100.00;99380.66;5072997;28;20040;-94
2023/02/02 00:17:22;;;;;;;27.05;16.02;;;;;;;3.62;100.00;99339.13;5072809;28;20048;-93
2023/02/02 00:19:48;;;;;;;25.90;16.95;;;;;;;3.73;100.00;99363.81;5072779;28;20398;-93
2023/02/02 00:22:15;;;;;;;25.88;15.75;;;;;;;3.65;100.00;99357.59;5071313;28;20044;-93
2023/02/02 00:24:41;;;;;;;28.00;14.98;;;;;;;3.64;100.00;99355.81;5073212;28;20043;-92
2023/02/02 00:27:08;;;;;;;24.83;14.18;;;;;;;3.44;100.00;99345.97;5073121;28;20131;-93
2023/02/02 00:29:35;;;;;;;21.65;13.60;;;;;;;3.39;100.00;99347.69;5077650;28;20048;-93
2023/02/02 00:32:01;;;;;;;24.85;13.40;;;;;;;3.40;100.00;99357.31;5071117;28;20486;-93
2023/02/02 00:34:27;;;;;;;21.77;13.18;;;;;;;3.44;100.00;99353.84;5072715;28;20048;-92
2023/02/02 00:36:53;;;;;;;23.90;14.15;;;;;;;3.59;100.00;99368.91;5072844;28;20452;-92
2023/02/02 00:39:21;;;;;;;27.55;14.27;;;;;;;3.55;100.00;99346.06;5073043;28;20033;-94
2023/02/02 00:41:47;;;;;;;24.65;14.20;;;;;;;3.69;100.00;99370.78;5073298;28;20552;-92
2023/02/02 00:47:15;;;;;;;22.75;13.10;;;;;;;3.54;100.00;99348.72;5133402;27;20730;-94
2023/02/02 00:49:41;;;;;;;26.42;15.02;;;;;;;3.46;100.00;99349.50;5104852;28;20044;-93
2023/02/02 00:52:07;;;;;;;26.10;14.40;;;;;;;3.23;100.00;99333.50;5105980;28;20097;-93
2023/02/02 00:54:33;;;;;;;24.23;13.90;;;;;;;3.26;100.00;99358.91;5108388;28;20035;-92
2023/02/02 00:56:59;;;;;;;26.30;14.50;;;;;;;3.20;100.00;99366.72;5100100;28;20101;-93
2023/02/02 00:59:25;;;;;;;24.67;13.55;;;;;;;2.91;100.00;99337.44;5109139;28;20046;-92
2023/02/02 01:01:51;;;;;;;27.23;14.00;;;;;;;2.81;100.00;99342.59;5103167;28;20408;-91
2023/02/02 01:04:18;;;;;;;23.20;13.80;;;;;;;2.82;100.00;99359.22;5100015;28;20041;-93
2023/02/02 01:06:44;;;;;;;20.73;11.93;;;;;;;2.79;100.00;99360.06;5097860;28;20085;-94
2023/02/02 01:09:10;;;;;;;23.20;12.30;;;;;;;2.77;100.00;99358.28;5105908;28;20428;-93
2023/02/02 01:11:36;;;;;;;24.33;12.52;;;;;;;2.75;100.00;99355.63;5098712;28;20048;-93
2023/02/02 01:14:02;;;;;;;18.63;11.43;;;;;;;2.71;100.00;99343.34;5107405;28;20074;-93
2023/02/02 01:16:28;;;;;;;21.52;12.75;;;;;;;2.83;100.00;99359.25;5105071;28;20131;-93
2023/02/02 01:18:54;;;;;;;21.55;12.60;;;;;;;2.67;100.00;99331.91;5098371;28;20064;-93
2023/02/02 01:21:21;;;;;;;23.30;13.18;;;;;;;2.67;100.00;99334.53;5103419;28;20473;-93
2023/02/02 01:23:48;;;;;;;26.40;13.73;;;;;;;2.63;100.00;99330.09;5100246;28;20050;-92
2023/02/02 01:26:14;;;;;;;26.58;14.75;;;;;;;2.62;100.00;99320.47;5099420;28;20497;-93
2023/02/02 01:28:40;;;;;;;21.38;13.73;;;;;;;2.59;100.00;99328.28;5095990;28;20043;-94
2023/02/02 01:31:09;;;;;;;24.50;13.60;;;;;;;2.68;100.00;99352.03;5098220;28;21516;-92
2023/02/02 01:33:35;;;;;;;22.20;13.07;;;;;;;2.57;100.00;99343.13;5104398;28;20050;-92
2023/02/02 01:36:04;;;;;;;20.20;12.48;;;;;;;2.60;100.00;99360.66;5098786;28;20054;-92
2023/02/02 01:38:32;;;;;;;24.85;12.85;;;;;;;2.39;100.00;99335.88;5099351;28;20051;-93
2023/02/02 01:40:58;;;;;;;23.05;13.43;;;;;;;2.55;100.00;99357.09;5100195;28;20044;-94
2023/02/02 01:43:26;;;;;;;23.15;14.50;;;;;;;2.54;100.00;99360.56;5106409;28;20048;-93
2023/02/02 01:45:53;;;;;;;29.05;15.38;;;;;;;2.39;100.00;99345.50;5098462;28;20051;-91
2023/02/02 01:48:23;;;;;;;24.02;14.05;;;;;;;2.32;100.00;99331.41;5100253;28;20044;-92
2023/02/02 01:50:51;;;;;;;20.42;13.32;;;;;;;2.45;100.00;99363.94;5101813;28;20432;-92
2023/02/02 01:53:18;;;;;;;24.60;13.75;;;;;;;2.31;100.00;99341.88;5101136;28;20056;-92
2023/02/02 01:55:48;;;;;;;30.92;16.52;;;;;;;2.22;100.00;99343.50;5099584;28;20040;-93
2023/02/02 01:58:18;;;;;;;28.88;16.33;;;;;;;2.28;100.00;99362.81;5089869;28;20118;-93
2023/02/02 02:00:44;;;;;;;25.00;15.27;;;;;;;2.09;100.00;99331.06;5084270;28;20045;-92
2023/02/02 02:03:13;;;;;;;30.60;17.33;;;;;;;2.29;100.00;99364.59;5087518;28;20044;-93
2023/02/02 02:05:45;;;;;;;28.23;17.00;;;;;;;2.24;100.00;99360.16;5091848;28;20467;-93
2023/02/02 02:08:16;;;;;;;29.58;17.13;;;;;;;2.38;100.00;99368.22;5091098;28;20058;-93
2023/02/02 02:10:42;;;;;;;29.17;15.80;;;;;;;2.38;100.00;99348.97;5088759;28;20043;-93
2023/02/02 02:13:10;;;;;;;27.55;16.83;;;;;;;2.52;100.00;99354.44;5089061;28;20402;-93
2023/02/02 02:18:51;;;;;;;24.10;15.35;;;;;;;2.96;100.00;99356.78;5132721;27;20477;-93
2023/02/02 02:28:51;;;;;;;31.38;16.85;;;;;;;2.99;100.00;99339.34;5112235;27;20365;-93
2023/02/02 02:31:55;;;;;;;29.48;16.23;;;;;;;2.92;100.00;99342.72;5107148;28;20040;-94
2023/02/02 02:34:32;;;;;;;29.45;15.57;;;;;;;2.93;100.00;99351.47;5106554;28;20493;-91
2023/02/02 02:37:06;;;;;;;25.65;14.95;;;;;;;2.70;100.00;99314.44;5110544;28;20105;-94
2023/02/02 02:39:38;;;;;;;24.25;14.02;;;;;;;2.79;100.00;99330.31;5110432;28;20051;-92
2023/02/02 02:42:08;;;;;;;22.15;12.98;;;;;;;2.67;100.00;99325.78;5110926;28;20044;-94
2023/02/02 02:44:35;;;;;;;27.30;13.82;;;;;;;2.60;100.00;99319.56;5110149;28;20036;-93
2023/02/02 02:47:03;;;;;;;21.98;13.13;;;;;;;2.82;100.00;99351.34;5110188;28;20036;-93
2023/02/02 02:49:29;;;;;;;22.63;13.23;;;;;;;2.68;100.00;99317.91;5110824;28;20036;-90
2023/02/02 02:51:55;;;;;;;24.83;13.88;;;;;;;2.92;100.00;99341.84;5111207;28;20471;-93
2023/02/02 02:54:26;;;;;;;32.78;17.27;;;;;;;3.01;100.00;99350.72;5104041;28;20066;-93
2023/02/02 02:57:20;;;;;;;29.45;15.90;;;;;;;3.13;100.00;99347.38;5110421;28;20028;-92
2023/02/02 02:59:54;;;;;;;32.88;17.33;;;;;;;3.12;100.00;99334.22;5108203;28;20040;-91
2023/02/02 03:02:33;;;;;;;28.30;15.52;;;;;;;3.11;100.00;99335.09;5109376;28;20040;-93
2023/02/02 03:05:20;;;;;;;29.77;17.13;;;;;;;3.19;100.00;99336.94;5106849;28;20043;-94
2023/02/02 03:07:50;;;;;;;26.52;16.60;;;;;;;3.29;100.00;99341.41;5110226;28;20036;-92
2023/02/02 03:10:21;;;;;;;27.08;16.35;;;;;;;3.31;100.00;99336.19;5109834;28;20036;-94
2023/02/02 03:12:49;;;;;;;29.38;16.08;;;;;;;3.18;100.00;99318.53;5110131;28;20509;-92
2023/02/02 03:15:16;;;;;;;27.70;16.48;;;;;;;3.18;100.00;99321.16;5109521;28;20527;-93
2023/02/02 03:17:45;;;;;;;26.95;15.68;;;;;;;3.17;100.00;99301.00;5110449;28;20054;-94
2023/02/02 03:20:12;;;;;;;29.63;14.82;;;;;;;3.18;100.00;99311.50;5110585;28;20059;-93
2023/02/02 03:22:38;;;;;;;29.27;14.32;;;;;;;3.21;100.00;99327.34;5110266;28;20511;-93
2023/02/02 03:25:05;;;;;;;26.48;15.63;;;;;;;3.14;100.00;99314.97;5110067;28;20043;-94
2023/02/02 03:27:31;;;;;;;26.90;15.90;;;;;;;3.15;100.00;99308.00;5109590;28;20047;-92
2023/02/02 03:29:57;;;;;;;29.88;16.58;;;;;;;3.05;100.00;99313.13;5109571;28;20051;-93
2023/02/02 03:32:24;;;;;;;30.02;16.55;;;;;;;2.96;100.00;99312.13;5109341;28;20063;-92
2023/02/02 03:34:51;;;;;;;33.40;17.63;;;;;;;3.01;100.00;99331.44;5109682;28;20126;-93
2023/02/02 03:37:17;;;;;;;31.42;17.77;;;;;;;2.92;100.00;99334.84;5108501;28;20055;-93
2023/02/02 03:39:43;;;;;;;38.75;19.02;;;;;;;2.86;100.00;99337.38;5095914;28;20032;-92
2023/02/02 03:42:08;;;;;;;31.88;17.85;;;;;;;2.82;100.00;99336.50;5093455;28;20401;-91
2023/02/02 03:44:34;;;;;;;31.15;17.13;;;;;;;2.74;100.00;99324.13;5096170;28;20036;-93
2023/02/02 03:47:01;;;;;;;29.73;16.40;;;;;;;2.65;100.00;99328.38;5095750;28;20473;-91
2023/02/02 03:49:27;;;;;;;31.80;16.92;;;;;;;2.62;100.00;99330.97;5095954;28;20044;-93
2023/02/02 03:51:54;;;;;;;34.63;18.98;;;;;;;2.54;100.00;99331.69;5095984;28;20036;-92
2023/02/02 03:54:20;;;;;;;38.88;20.23;;;;;;;2.41;100.00;99321.03;5095779;28;20051;-94
2023/02/02 03:56:45;;;;;;;31.98;19.13;;;;;;;2.29;100.00;99314.72;5090121;28;20036;-95
2023/02/02 03:59:11;;;;;;;37.33;21.15;;;;;;;2.27;100.00;99309.44;5095945;28;20047;-94
2023/02/02 04:01:37;;;;;;;35.75;20.27;;;;;;;2.29;100.00;99317.34;5094877;28;20048;-91
2023/02/02 04:04:03;;;;;;;38.05;19.95;;;;;;;2.20;100.00;99294.50;5096146;28;20044;-93
2023/02/02 04:06:29;;;;;;;32.47;18.38;;;;;;;2.25;100.00;99317.28;5095858;28;20036;-92
2023/02/02 04:08:56;;;;;;;34.83;19.30;;;;;;;2.11;100.00;99312.72;5095873;28;20119;-93
2023/02/02 04:11:22;;;;;;;32.92;17.73;;;;;;;2.13;100.00;99332.88;5095639;28;20123;-92
2023/02/02 04:13:48;;;;;;;29.00;17.02;;;;;;;2.02;100.00;99327.44;5095781;28;20131;-94
2023/02/02 04:16:13;;;;;;;32.50;17.65;;;;;;;1.90;100.00;99308.88;5095116;28;20511;-91
2023/02/02 04:18:39;;;;;;;35.90;17.95;;;;;;;1.90;100.00;99324.63;5095440;28;20047;-93
2023/02/02 04:21:07;;;;;;;33.47;17.80;;;;;;;1.90;100.00;99329.84;5095565;28;20044;-92
2023/02/02 04:23:33;;;;;;;34.33;17.98;;;;;;;1.83;100.00;99307.91;5095448;28;20040;-94
2023/02/02 04:26:01;;;;;;;34.33;18.50;;;;;;;1.94;100.00;99328.19;5094892;28;20070;-93
2023/02/02 04:28:27;;;;;;;33.55;18.67;;;;;;;1.92;100.00;99327.28;5095361;28;20453;-94
2023/02/02 04:30:54;;;;;;;35.72;19.05;;;;;;;1.77;100.00;99306.91;5095362;28;20040;-92
2023/02/02 04:33:21;;;;;;;33.50;18.70;;;;;;;1.94;100.00;99334.31;5095814;28;20036;-94
2023/02/02 04:35:47;;;;;;;37.13;19.60;;;;;;;1.92;100.00;99341.25;5095065;28;20039;-94
2023/02/02 04:38:13;;;;;;;35.15;19.17;;;;;;;1.73;100.00;99308.59;5095235;28;20516;-93
2023/02/02 04:40:39;;;;;;;34.28;18.05;;;;;;;1.74;100.00;99333.97;5095488;28;20139;-93
2023/02/02 04:43:07;;;;;;;35.42;18.80;;;;;;;1.86;100.00;99362.13;5095247;28;20036;-92
2023/02/02 04:45:33;;;;;;;36.08;19.58;;;;;;;1.70;100.00;99332.16;5094588;28;20519;-93
2023/02/02 04:47:59;;;;;;;37.58;20.48;;;;;;;1.72;100.00;99340.06;5095114;28;20060;-92
2023/02/02 04:50:25;;;;;;;35.10;19.83;;;;;;;1.64;100.00;99337.28;5094250;28;20497;-92
2023/02/02 04:52:51;;;;;;;35.22;20.02;;;;;;;1.76;100.00;99358.47;5094981;28;20036;-92
2023/02/02 04:55:16;;;;;;;34.80;19.13;;;;;;;1.68;100.00;99349.59;5095404;28;20111;-92
2023/02/02 04:57:42;;;;;;;30.90;18.10;;;;;;;1.70;100.00;99350.50;5095679;28;20028;-92
2023/02/02 05:00:12;;;;;;;36.88;19.30;;;;;;;1.71;100.00;99347.00;5094103;28;20036;-92
2023/02/02 05:02:39;;;;;;;31.58;16.23;;;;;;;1.75;100.00;99354.06;5094927;28;20398;-93
2023/02/02 05:05:06;;;;;;;35.67;17.10;;;;;;;1.91;100.00;99377.94;5094933;28;20036;-94
2023/02/02 05:07:32;;;;;;;36.13;18.02;;;;;;;1.81;100.00;99354.19;5094768;28;20109;-93
2023/02/02 05:09:58;;;;;;;35.20;18.95;;;;;;;1.83;100.00;99364.72;5094630;28;20043;-92
2023/02/02 05:12:24;;;;;;;40.78;19.45;;;;;;;1.87;100.00;99361.28;5094782;28;20036;-93
2023/02/02 05:14:50;;;;;;;35.63;18.70;;;;;;;2.01;100.00;99391.25;5094471;28;20044;-93
2023/02/02 05:17:17;;;;;;;35.13;19.58;;;;;;;1.91;100.00;99362.22;5093693;28;20132;-93
2023/02/02 05:19:43;;;;;;;34.28;19.15;;;;;;;2.07;100.00;99387.84;5091215;28;20036;-92
2023/02/02 05:22:09;;;;;;;36.10;19.00;;;;;;;2.16;100.00;99382.75;5094063;28;20042;-92
2023/02/02 05:24:35;;;;;;;33.38;18.48;;;;;;;2.13;100.00;99369.59;5093689;28;20070;-93
2023/02/02 05:27:01;;;;;;;37.00;20.38;;;;;;;2.28;100.00;99389.06;5093293;28;20040;-92
2023/02/02 05:29:27;;;;;;;38.63;19.92;;;;;;;2.16;100.00;99371.38;5094458;28;20174;-93
2023/02/02 05:31:53;;;;;;;34.33;19.90;;;;;;;2.24;100.00;99389.00;5093451;28;20225;-91
2023/02/02 05:34:21;;;;;;;35.38;19.15;;;;;;;2.26;100.00;99387.31;5093996;28;20040;-92
2023/02/02 05:36:47;;;;;;;36.65;18.25;;;;;;;2.23;100.00;99391.59;5093606;28;20508;-92
2023/02/02 05:39:13;;;;;;;37.30;20.13;;;;;;;2.23;100.00;99402.09;5094193;28;20040;-92
2023/02/02 05:41:40;;;;;;;35.53;18.95;;;;;;;2.09;100.00;99383.53;5093531;28;20040;-93
2023/02/02 05:44:06;;;;;;;33.78;18.08;;;;;;;2.26;100.00;99410.03;5093571;28;20520;-93
2023/02/02 05:46:32;;;;;;;32.30;17.50;;;;;;;2.09;100.00;99412.38;5092666;28;20489;-93
2023/02/02 05:48:58;;;;;;;34.22;17.85;;;;;;;1.91;100.00;99391.06;5093656;28;20058;-92
2023/02/02 05:51:28;;;;;;;32.83;17.27;;;;;;;1.91;100.00;99399.84;5093628;28;20490;-93
2023/02/02 05:53:54;;;;;;;35.58;17.48;;;;;;;1.85;100.00;99412.84;5091548;28;20485;-93
2023/02/02 05:56:20;;;;;;;34.97;18.05;;;;;;;1.79;100.00;99426.69;5093035;28;20043;-94
2023/02/02 05:58:48;;;;;;;34.65;19.15;;;;;;;1.63;100.00;99409.81;5093448;28;20046;-93
2023/02/02 06:01:15;;;;;;;32.25;19.25;;;;;;;1.67;100.00;99413.38;5092814;28;20040;-93
2023/02/02 06:03:41;;;;;;;42.67;21.45;;;;;;;1.54;100.00;99403.50;5093254;28;20036;-94
2023/02/02 06:06:07;;;;;;;37.42;20.05;;;;;;;1.33;100.00;99373.41;5093739;28;20036;-93
2023/02/02 06:08:34;;;;;;;35.88;19.85;;;;;;;1.30;100.00;99388.16;5093034;28;20093;-94
2023/02/02 06:11:07;;;;;;;37.72;19.23;;;;;;;1.30;100.00;99383.84;5092044;28;20040;-92
2023/02/02 06:13:34;;;;;;;35.05;19.85;;;;;;;1.25;100.00;99382.84;5093062;28;20047;-91
2023/02/02 06:16:00;;;;;;;35.63;19.20;;;;;;;1.14;100.00;99377.38;5092935;28;20040;-92
2023/02/02 06:18:25;;;;;;;36.67;20.65;;;;;;;1.21;100.00;99383.63;5093661;28;20476;-93
2023/02/02 06:20:55;;;;;;;38.95;20.38;;;;;;;1.14;100.00;99394.84;5093242;28;20044;-92
2023/02/02 06:23:21;;;;;;;39.83;21.73;;;;;;;1.12;100.00;99396.56;5093565;28;20044;-92
2023/02/02 06:25:49;;;;;;;40.20;21.52;;;;;;;1.07;100.00;99398.19;5093075;28;20386;-93
2023/02/02 06:28:14;;;;;;;39.67;21.83;;;;;;;1.11;100.00;99400.91;5093425;28;20059;-93
2023/02/02 06:30:40;;;;;;;41.95;22.30;;;;;;;1.00;100.00;99382.34;5093610;28;20036;-93
2023/02/02 06:33:06;;;;;;;44.72;21.08;;;;;;;1.12;100.00;99405.28;5094027;28;20036;-93
2023/02/02 06:35:33;;;;;;;35.80;20.00;;;;;;;1.05;100.00;99402.53;5094276;28;20051;-94
2023/02/02 06:37:59;;;;;;;36.03;19.35;;;;;;;0.92;100.00;99386.53;5093613;28;20040;-92
2023/02/02 06:40:25;;;;;;;39.42;19.33;;;;;;;1.11;100.00;99416.63;5094196;28;20047;-93
2023/02/02 06:42:57;;;;;;;45.70;21.02;;;;;;;1.07;100.00;99398.19;5093697;28;20047;-93
2023/02/02 06:45:23;;;;;;;38.13;20.52;;;;;;;1.07;100.00;99391.22;5094326;28;20047;-92
2023/02/02 06:47:49;;;;;;;45.10;21.55;;;;;;;0.98;100.00;99381.44;5096263;28;20130;-91
2023/02/02 06:50:15;;;;;;;49.38;21.67;;;;;;;1.07;100.00;99399.06;5095727;28;20060;-94
2023/02/02 06:52:47;;;;;;;52.63;24.08;;;;;;;0.85;100.00;99382.03;5096788;28;20046;-92
2023/02/02 06:55:13;;;;;;;43.40;22.48;;;;;;;0.89;100.00;99383.88;5096924;28;20046;-95
2023/02/02 06:58:03;;;;;;;44.92;23.33;;;;;;;1.02;100.00;99395.50;5097290;28;20177;-92
2023/02/02 07:00:32;;;;;;;45.83;24.17;;;;;;;1.10;100.00;99388.66;5097091;28;20136;-92
2023/02/02 07:02:58;;;;;;;46.92;25.15;;;;;;;1.35;100.00;99403.16;5097491;28;20139;-93
2023/02/02 07:05:23;;;;;;;53.30;27.25;;;;;;;1.44;100.00;99413.81;5095754;28;20060;-93
2023/02/02 07:07:49;;;;;;;51.13;25.08;;;;;;;1.52;100.00;99407.81;5096424;28;20043;-93
2023/02/02 07:10:16;;;;;;;48.85;25.70;;;;;;;1.50;100.00;99417.41;5096165;28;20048;-94
2023/02/02 07:12:42;;;;;;;46.30;25.05;;;;;;;1.51;100.00;99417.44;5096407;28;20098;-94
2023/02/02 07:15:08;;;;;;;49.03;26.10;;;;;;;1.56;100.00;99422.75;5099818;28;20039;-93
2023/02/02 07:17:36;;;;;;;46.95;25.70;;;;;;;1.68;100.00;99425.63;5099518;28;20036;-93
2023/02/02 07:20:02;;;;;;;48.17;24.98;;;;;;;1.79;100.00;99431.06;5100057;28;20052;-91
2023/02/02 07:22:27;;;;;;;55.00;29.27;;;;;;;1.99;100.00;99431.44;5100549;28;20048;-93
2023/02/02 07:24:53;;;;;;;66.40;33.35;;;;;;;2.26;100.00;99455.53;5100266;28;20048;-94
2023/02/02 07:27:19;;;;;;;54.38;28.55;;;;;;;2.36;100.00;99446.06;5100317;28;20052;-94
2023/02/02 07:29:45;;;;;;;53.70;26.55;;;;;;;2.40;100.00;99441.75;5100585;28;20401;-94
2023/02/02 07:32:12;;;;;;;56.30;27.23;;;;;;;2.42;100.00;99419.03;5099638;28;20057;-93
2023/02/02 07:34:41;;;;;;;54.13;28.25;;;;;;;2.47;100.00;99418.28;5099582;28;20050;-94
2023/02/02 07:37:08;;;;;;;49.17;27.20;;;;;;;2.57;100.00;99413.16;5099591;28;20444;-93
2023/02/02 07:39:33;;;;;;;51.03;26.42;;;;;;;2.68;100.00;99409.81;5099922;28;20047;-93
2023/02/02 07:41:59;;;;;;;50.75;27.02;;;;;;;2.70;100.00;99399.34;5099485;28;20044;-94
2023/02/02 07:44:25;;;;;;;55.88;27.52;;;;;;;2.76;100.00;99404.69;5099357;28;20135;-93
2023/02/02 07:46:51;;;;;;;55.47;26.67;;;;;;;2.85;100.00;99409.19;5099050;28;20036;-95
2023/02/02 07:49:18;;;;;;;53.15;26.98;;;;;;;2.90;100.00;99411.88;5098982;28;20576;-93
2023/02/02 07:51:48;;;;;;;46.13;25.60;;;;;;;3.03;100.00;99414.69;5098594;28;20036;-94
2023/02/02 07:54:14;;;;;;;50.20;27.13;;;;;;;3.12;100.00;99405.16;5098610;28;20093;-93
2023/02/02 07:56:40;;;;;;;56.08;27.90;;;;;;;3.31;100.00;99417.66;5098710;28;20138;-93
2023/02/02 07:59:06;;;;;;;55.08;27.17;;;;;;;3.52;100.00;99429.34;5098181;28;20063;-92
2023/02/02 08:01:32;;;;;;;50.38;24.83;;;;;;;3.65;100.00;99457.53;5097903;28;20066;-92
2023/02/02 08:03:59;;;;;;;46.40;23.90;;;;;;;3.52;100.00;99418.81;5098401;28;20405;-94
2023/02/02 08:06:28;;;;;;;41.78;24.27;;;;;;;3.57;100.00;99407.47;5098048;28;20036;-93
2023/02/02 08:08:56;;;;;;;50.25;25.23;;;;;;;3.65;100.00;99415.47;5097940;28;20061;-93
2023/02/02 08:11:23;;;;;;;44.75;24.02;;;;;;;3.77;100.00;99412.94;5097827;28;20044;-93
2023/02/02 08:13:51;;;;;;;54.25;26.35;;;;;;;3.96;100.00;99434.19;5096658;28;20064;-94
2023/02/02 08:16:18;;;;;;;50.40;26.20;;;;;;;4.10;100.00;99429.97;5099428;28;20554;-93
2023/02/02 08:18:44;;;;;;;48.92;29.73;;;;;;;4.41;100.00;99462.69;5098291;28;20047;-93
2023/02/02 08:21:10;;;;;;;53.15;27.70;;;;;;;4.48;100.00;99437.28;5097959;28;20051;-93
2023/02/02 08:23:38;;;;;;;46.15;25.23;;;;;;;4.64;100.00;99446.19;5096515;28;20138;-95
2023/02/02 08:26:07;;;;;;;46.70;25.75;;;;;;;4.81;100.00;99443.69;5096934;28;20052;-94
2023/02/02 08:28:35;;;;;;;;;;;;;;;5.13;100.00;99475.53;5098149;28;20036;-94
2023/02/02 08:31:04;;;;;;;38.70;21.52;;;;;;;5.13;100.00;99449.16;5097923;28;19920;-94
2023/02/02 08:33:30;;;;;;;38.35;20.88;;;;;;;5.39;98.26;99451.94;5099255;28;20489;-93
2023/02/02 08:35:56;;;;;;;41.28;20.02;;;;;;;5.44;96.52;99465.13;5098144;28;20131;-95
2023/02/02 08:38:23;;;;;;;34.67;19.63;;;;;;;5.14;97.22;99464.13;5096916;28;20063;-94
2023/02/02 08:40:48;;;;;;;36.35;19.67;;;;;;;5.23;97.83;99482.63;5096800;28;20055;-95
2023/02/02 08:43:16;;;;;;;40.22;21.83;;;;;;;5.28;98.02;99486.16;5096825;28;20035;-94
2023/02/02 08:45:42;;;;;;;41.53;24.15;;;;;;;5.41;97.43;99466.00;5096204;28;20140;-94
2023/02/02 08:48:08;;;;;;;40.22;21.55;;;;;;;5.74;95.62;99449.44;5095635;28;20040;-94
2023/02/02 08:50:34;;;;;;;40.80;21.80;;;;;;;6.15;95.14;99435.47;5096339;28;20048;-94
2023/02/02 08:53:00;;;;;;;34.33;20.77;;;;;;;6.52;92.92;99448.72;5096637;28;20040;-92
2023/02/02 08:55:26;;;;;;;35.50;21.27;;;;;;;6.66;91.60;99440.81;5095894;28;20505;-93
2023/02/02 08:57:52;;;;;;;36.80;19.95;;;;;;;6.97;89.34;99475.13;5096328;28;20052;-93
2023/02/02 09:00:20;;;;;;;42.78;20.65;;;;;;;6.94;88.19;99460.16;5096364;28;20440;-94
2023/02/02 09:02:49;;;;;;;41.97;22.33;;;;;;;7.07;87.74;99476.91;5097182;28;20044;-95
2023/02/02 09:05:15;;;;;;;;;;;;;;;7.20;85.32;99488.34;5096596;28;20044;-93
2023/02/02 09:07:41;;;;;;;37.97;21.13;;;;;;;6.96;85.38;99462.78;5095324;28;20258;-93
2023/02/02 09:10:08;;;;;;;41.92;22.88;;;;;;;6.99;87.56;99476.00;5096067;28;20043;-93
2023/02/02 09:12:34;;;;;;;40.88;22.67;;;;;;;7.13;87.41;99490.09;5095721;28;20036;-93
2023/02/02 09:15:00;;;;;;;41.22;22.25;;;;;;;7.12;87.25;99468.94;5096302;28;20055;-94
2023/02/02 09:17:28;;;;;;;37.90;23.38;;;;;;;7.15;86.80;99468.94;5095405;28;20059;-93
2023/02/02 09:19:54;;;;;;;39.53;22.48;;;;;;;7.19;86.10;99463.63;5096467;28;20114;-94
2023/02/02 09:22:20;;;;;;;46.80;25.27;;;;;;;7.23;85.01;99461.88;5095906;28;20044;-94
2023/02/02 09:24:46;;;;;;;40.13;24.15;;;;;;;7.33;84.75;99470.63;5095891;28;20101;-92
2023/02/02 09:27:12;;;;;;;45.30;25.02;;;;;;;7.33;85.45;99457.41;5095225;28;20048;-92
2023/02/02 09:29:37;;;;;;;42.70;23.00;;;;;;;7.42;84.53;99462.69;5095401;28;20040;-92
2023/02/02 09:32:04;;;;;;;39.55;24.45;;;;;;;7.60;84.21;99474.97;5095262;28;20044;-94
2023/02/02 09:34:31;;;;;;;41.60;23.77;;;;;;;7.58;83.43;99480.28;5094875;28;20075;-94
2023/02/02 09:36:57;;;;;;;43.72;24.63;;;;;;;7.43;84.32;99469.75;5095856;28;20397;-94
2023/02/02 09:39:23;;;;;;;37.83;22.25;;;;;;;7.49;84.69;99474.16;5094346;28;20040;-94
2023/02/02 09:42:03;;;;;;;37.30;22.25;;;;;;;7.74;83.83;99490.78;5094285;28;20051;-95
2023/02/02 09:44:45;;;;;;;38.47;22.17;;;;;;;7.72;82.25;99474.94;5094113;28;20039;-93
2023/02/02 09:47:19;;;;;;;36.03;19.90;;;;;;;7.72;79.91;99487.28;5083960;28;20105;-94
2023/02/02 09:49:56;;;;;;;39.50;21.73;;;;;;;7.72;80.53;99506.72;5094345;28;20036;-94
2023/02/02 09:52:28;;;;;;;37.25;20.70;;;;;;;7.91;81.00;99510.13;5094353;28;20122;-94
2023/02/02 09:54:58;;;;;;;29.67;15.70;;;;;;;8.15;78.49;99516.22;5094328;28;20436;-95
2023/02/02 09:57:30;;;;;;;23.55;13.85;;;;;;;8.30;75.52;99509.94;5094347;28;20040;-94
2023/02/02 09:59:56;;;;;;;28.50;14.85;;;;;;;8.35;75.54;99510.78;5094150;28;20043;-94
2023/02/02 10:02:29;;;;;;;33.70;17.33;;;;;;;8.25;75.87;99488.78;5093953;28;20040;-94
2023/02/02 10:05:05;;;;;;;32.88;17.27;;;;;;;8.26;76.02;99494.94;5094097;28;20394;-94
2023/02/02 10:07:37;;;;;;;32.85;17.60;;;;;;;8.48;76.06;99512.53;5094059;28;20032;-95
2023/02/02 10:10:10;;;;;;;28.38;16.70;;;;;;;8.55;75.79;99484.22;5094714;28;20044;-94
2023/02/02 10:12:46;;;;;;;31.73;17.15;;;;;;;8.76;75.13;99481.38;5094416;28;20618;-95
2023/02/02 10:15:21;;;;;;;28.50;17.10;;;;;;;9.09;74.29;99499.69;5093911;28;20496;-94
2023/02/02 10:17:53;;;;;;;27.85;16.70;;;;;;;9.12;72.81;99497.84;5094200;28;20040;-93
2023/02/02 10:20:36;;;;;;;30.58;15.98;;;;;;;9.01;73.38;99492.66;5094133;28;20047;-94
2023/02/02 10:23:12;;;;;;;24.13;15.13;;;;;;;9.31;73.90;99510.97;5093949;28;20135;-95
2023/02/02 10:25:44;;;;;;;28.27;16.10;;;;;;;9.41;72.55;99484.31;5093869;28;20044;-93
2023/02/02 10:28:17;;;;;;;27.80;15.77;;;;;;;9.56;72.21;99491.19;5093436;28;20048;-95
2023/02/02 10:30:45;;;;;;;35.35;18.27;;;;;;;9.71;71.36;99481.28;5093821;28;20489;-94
2023/02/02 10:33:19;;;;;;;35.97;18.45;;;;;;;9.52;70.89;99452.31;5093629;28;20048;-94
2023/02/02 10:35:54;;;;;;;27.63;17.15;;;;;;;9.51;70.89;99455.84;5093865;28;20501;-95
2023/02/02 10:38:33;;;;;;;29.52;17.45;;;;;;;9.33;72.23;99467.56;5093903;28;20067;-95
2023/02/02 10:41:13;;;;;;;27.40;17.02;;;;;;;9.25;72.63;99467.63;5093640;28;20040;-94
2023/02/02 10:44:04;;;;;;;31.95;18.77;;;;;;;9.34;73.62;99471.97;5094065;28;20036;-94
2023/02/02 10:46:34;;;;;;;29.05;16.98;;;;;;;9.35;73.47;99454.28;5093650;28;20044;-95
2023/02/02 10:49:16;;;;;;;33.55;18.45;;;;;;;9.45;74.06;99474.50;5097163;28;20523;-95
2023/02/02 10:51:51;;;;;;;35.33;18.48;;;;;;;9.51;74.38;99465.59;5098014;28;20044;-92
2023/02/02 10:54:39;;;;;;;34.40;18.63;;;;;;;9.51;72.99;99437.28;5097758;28;20063;-94
2023/02/02 10:57:09;;;;;;;33.22;19.92;;;;;;;9.62;73.47;99432.69;5093543;28;20047;-94
2023/02/02 10:59:45;;;;;;;34.45;18.58;;;;;;;9.84;71.79;99451.88;5097661;28;20123;-95
2023/02/02 11:02:11;;;;;;;35.40;19.38;;;;;;;9.90;71.79;99447.41;5097575;28;20067;-93
2023/02/02 11:07:37;;;;;;;29.42;17.38;;;;;;;9.98;71.70;99433.13;5112970;27;20365;-94
2023/02/02 11:10:04;;;;;;;29.42;16.80;;;;;;;10.05;70.77;99437.44;5111653;28;20075;-94
2023/02/02 11:12:32;;;;;;;28.02;16.13;;;;;;;10.19;70.32;99442.59;5113786;28;20040;-93
2023/02/02 11:15:01;;;;;;;28.98;15.10;;;;;;;10.36;70.82;99465.38;5114337;28;20501;-94
2023/02/02 11:17:28;;;;;;;26.85;15.20;;;;;;;10.18;71.22;99445.25;5115192;28;20040;-94
2023/02/02 11:19:55;;;;;;;28.85;14.20;;;;;;;10.21;70.76;99423.94;5115562;28;20036;-94
2023/02/02 11:22:28;;;;;;;29.17;16.33;;;;;;;10.22;71.71;99433.69;5114648;28;20040;-93
2023/02/02 11:24:57;;;;;;;28.20;17.00;;;;;;;10.25;71.99;99423.84;5113533;28;20141;-94
2023/02/02 11:27:26;;;;;;;25.45;15.48;;;;;;;10.41;71.81;99426.31;5113365;28;20089;-95
2023/02/02 11:29:53;;;;;;;23.92;13.85;;;;;;;10.48;71.48;99412.03;5107909;28;20048;-94
2023/02/02 11:32:26;;;;;;;23.55;13.65;;;;;;;10.75;71.21;99418.66;5114013;28;20126;-95
2023/02/02 11:35:17;;;;;;;26.15;13.60;;;;;;;11.03;70.74;99415.50;5113820;28;20043;-94
2023/02/02 11:37:56;;;;;;;26.75;12.15;;;;;;;11.16;69.65;99409.03;5114238;28;20050;-93
2023/02/02 11:40:34;;;;;;;21.20;11.15;;;;;;;11.16;69.06;99387.75;5114865;28;20466;-95